Time;durP1;ratioP1;P1;durP2;ratioP2;P2;SDS_P1;SDS_P2;PMS_P1;PMS_P2;Temp;Humidity;BMP_temperature;BMP_pressure;BME280_temperature;BME280_humidity;BME280_pressure;Samples;Min_cycle;Max_cycle;Signal;HPM_P1;HPM_P2
2021/12/16 05:05:12;;;;;;;95.25;59.63;;;;;;;4.43;72.59;101858.41;5603562;31;174443;-58
2021/12/16 05:08:15;;;;;;;97.90;61.28;;;;;;;4.43;72.59;101858.41;5603271;31;34399;-58
2021/12/16 05:11:18;;;;;;;105.30;62.75;;;;;;;3.95;73.67;101866.50;5603686;31;34130;-58
2021/12/16 05:14:20;;;;;;;96.97;61.85;;;;;;;3.73;76.25;101863.97;5603962;31;33513;-58
2021/12/16 05:17:28;;;;;;;94.72;63.65;;;;;;;3.77;76.46;101864.37;5603779;31;33241;-58
2021/12/16 05:20:34;;;;;;;96.60;63.58;;;;;;;3.98;75.75;101863.44;5604174;31;33255;-58
2021/12/16 05:27:06;;;;;;;90.12;61.03;;;;;;;4.03;73.57;101865.50;5603942;31;33230;-58
2021/12/16 05:30:09;;;;;;;93.25;61.92;;;;;;;4.15;72.98;101872.69;5603962;31;33259;-58
2021/12/16 05:33:14;;;;;;;91.43;61.28;;;;;;;4.05;75.72;101874.09;5604078;31;33221;-58
2021/12/16 05:36:17;;;;;;;95.35;61.92;;;;;;;3.93;76.14;101882.59;5578493;32;33386;-58
2021/12/16 05:39:20;;;;;;;93.50;65.43;;;;;;;4.00;74.24;101885.28;5565718;32;33202;-58
2021/12/16 05:42:23;;;;;;;97.00;64.50;;;;;;;4.13;74.34;101884.50;5564737;32;33332;-58
2021/12/16 05:45:27;;;;;;;95.60;64.57;;;;;;;4.17;73.24;101888.38;5564576;31;34137;-58
2021/12/16 05:48:32;;;;;;;99.25;64.93;;;;;;;4.28;84.04;101897.63;5566770;32;33883;-58
2021/12/16 05:51:37;;;;;;;95.30;64.20;;;;;;;4.08;74.78;101893.06;5582089;32;33453;-58
2021/12/16 05:54:40;;;;;;;101.25;65.25;;;;;;;4.01;76.00;101892.25;5584009;32;33886;-58
2021/12/16 05:57:44;;;;;;;93.87;62.65;;;;;;;3.92;75.73;101896.09;5575324;32;33191;-58
2021/12/16 06:00:50;;;;;;;100.00;63.47;;;;;;;4.06;74.22;101899.59;5583374;31;34285;-58
2021/12/16 06:03:53;;;;;;;94.75;63.35;;;;;;;4.10;78.41;101900.81;5583278;31;34598;-58
2021/12/16 06:06:55;;;;;;;89.22;61.88;;;;;;;4.06;74.14;101894.28;5582986;32;33646;-58
2021/12/16 06:09:58;;;;;;;90.12;63.53;;;;;;;4.20;72.83;101888.81;5582526;31;33630;-58
2021/12/16 06:13:02;;;;;;;91.37;62.40;;;;;;;4.18;72.82;101890.03;5584036;32;33834;-58
2021/12/16 06:26:24;;;;;;;88.40;61.72;;;;;;;4.16;73.22;101884.91;5570772;32;34436;-58
2021/12/16 06:29:32;;;;;;;91.47;61.33;;;;;;;4.17;74.28;101889.22;5553996;32;33283;-58
2021/12/16 06:32:34;;;;;;;87.97;61.05;;;;;;;4.15;74.37;101899.22;5569207;32;34173;-58
2021/12/16 06:35:37;;;;;;;94.10;63.30;;;;;;;4.17;79.17;101901.66;5570050;32;32580;-58
2021/12/16 06:38:43;;;;;;;92.78;59.95;;;;;;;4.22;74.32;101900.03;5570371;31;33865;-58
2021/12/16 06:41:46;;;;;;;85.62;59.67;;;;;;;4.21;74.63;101895.78;5569250;32;33253;-58
2021/12/16 06:44:54;;;;;;;93.37;61.65;;;;;;;4.28;75.15;101902.94;5570118;31;33338;-58
2021/12/16 06:48:00;;;;;;;89.03;60.47;;;;;;;4.43;77.12;101904.37;5570279;32;34409;-58
2021/12/16 06:51:06;;;;;;;87.28;59.83;;;;;;;4.51;73.21;101905.22;5570369;32;34167;-58
2021/12/16 06:54:14;;;;;;;86.10;59.53;;;;;;;4.37;73.72;101902.53;5569895;32;33762;-58
2021/12/16 06:57:25;;;;;;;89.40;60.90;;;;;;;4.39;73.67;101912.94;5569825;32;33761;-58
2021/12/16 07:00:38;;;;;;;91.65;58.85;;;;;;;4.39;73.05;101912.94;5569696;32;33583;-58
2021/12/16 07:03:47;;;;;;;87.68;59.20;;;;;;;4.31;73.46;101913.97;5569755;32;33674;-58
2021/12/16 07:06:50;;;;;;;89.22;59.13;;;;;;;4.34;73.97;101920.69;5570158;32;34372;-58
2021/12/16 07:09:53;;;;;;;87.50;57.90;;;;;;;4.53;73.47;101919.09;5569693;32;33720;-58
2021/12/16 07:12:58;;;;;;;96.40;58.90;;;;;;;4.35;76.70;101925.81;5569358;32;33655;-58
2021/12/16 07:16:00;;;;;;;95.60;60.47;;;;;;;4.37;74.33;101920.28;5569443;32;33204;-58
2021/12/16 07:19:03;;;;;;;100.03;61.15;;;;;;;4.34;80.71;101923.34;5569314;32;34362;-58
2021/12/16 07:22:08;;;;;;;91.37;59.92;;;;;;;4.69;87.53;101918.72;5569696;32;33725;-58
2021/12/16 07:25:10;;;;;;;88.57;58.25;;;;;;;4.92;78.53;101919.13;5569072;32;33552;-58
2021/12/16 07:28:13;;;;;;;90.10;59.80;;;;;;;4.90;74.00;101912.38;5568721;32;33338;-58
2021/12/16 07:31:15;;;;;;;97.72;59.78;;;;;;;4.82;73.91;101913.41;5569987;32;33111;-58
2021/12/16 07:34:19;;;;;;;91.22;59.65;;;;;;;4.82;74.16;101909.94;5569719;32;33669;-57
2021/12/16 07:37:21;;;;;;;90.38;59.88;;;;;;;4.81;74.97;101910.97;5568170;32;33646;-58
2021/12/16 07:40:26;;;;;;;79.18;55.65;;;;;;;4.98;81.53;101912.19;5570104;32;33637;-58
2021/12/16 07:46:47;;;;;;;82.65;55.33;;;;;;;5.05;75.12;101914.84;5569162;32;34380;-58
2021/12/16 07:49:50;;;;;;;89.78;57.80;;;;;;;5.06;74.88;101919.94;5569417;32;34602;-58
2021/12/16 07:52:52;;;;;;;87.37;57.92;;;;;;;5.09;74.44;101911.56;5569967;32;34574;-58
2021/12/16 07:55:55;;;;;;;90.28;58.72;;;;;;;5.11;74.45;101909.53;5569528;32;33541;-58
2021/12/16 07:58:57;;;;;;;98.65;59.63;;;;;;;5.17;75.15;101911.34;5569626;32;34503;-58
2021/12/16 08:02:01;;;;;;;97.75;59.10;;;;;;;5.34;75.87;101908.25;5569695;32;34334;-58
2021/12/16 08:05:06;;;;;;;96.20;61.83;;;;;;;5.38;73.79;101904.97;5568537;32;33550;-58
2021/12/16 08:08:10;;;;;;;90.47;60.60;;;;;;;5.36;73.73;101901.72;5549927;32;34320;-58
2021/12/16 08:11:13;;;;;;;97.60;64.65;;;;;;;5.33;73.83;101903.94;5549984;32;34402;-58
2021/12/16 08:14:17;;;;;;;88.55;58.35;;;;;;;5.37;74.09;101913.16;5549858;32;34332;-59
2021/12/16 08:17:20;;;;;;;88.37;58.05;;;;;;;5.39;74.28;101905.78;5549828;32;33764;-58
2021/12/16 08:20:23;;;;;;;89.18;59.25;;;;;;;5.41;73.91;101909.06;5549358;32;33980;-58
2021/12/16 08:23:25;;;;;;;91.50;59.50;;;;;;;5.40;74.08;101905.59;5548550;32;34263;-58
2021/12/16 08:26:29;;;;;;;85.80;58.58;;;;;;;5.36;74.41;101915.00;5549551;32;33301;-58
2021/12/16 08:29:32;;;;;;;85.20;58.60;;;;;;;5.44;74.08;101916.62;5549640;32;33871;-58
2021/12/16 08:32:34;;;;;;;82.55;56.90;;;;;;;5.47;74.25;101916.22;5549245;32;33854;-58
2021/12/16 08:35:41;;;;;;;84.53;57.67;;;;;;;5.42;73.96;101914.16;5548657;32;33808;-58
2021/12/16 08:38:44;;;;;;;85.60;58.75;;;;;;;5.50;74.20;101912.31;5549986;32;34411;-58
2021/12/16 08:41:50;;;;;;;91.68;60.47;;;;;;;5.44;85.67;101913.97;5548877;32;33597;-58
2021/12/16 08:44:52;;;;;;;88.90;58.03;;;;;;;5.38;75.12;101912.94;5549879;32;33468;-58
2021/12/16 08:47:57;;;;;;;85.00;58.35;;;;;;;5.46;74.44;101906.56;5551518;32;33368;-58
2021/12/16 08:50:59;;;;;;;92.65;59.65;;;;;;;5.42;74.48;101916.00;5568727;32;33333;-58
2021/12/16 08:54:03;;;;;;;87.25;59.83;;;;;;;5.58;75.29;101912.09;5566521;32;33227;-58
2021/12/16 08:57:05;;;;;;;94.22;60.65;;;;;;;5.54;74.07;101919.66;5568941;32;34192;-58
2021/12/16 09:00:13;;;;;;;89.70;59.92;;;;;;;5.48;74.59;101909.84;5555396;32;33446;-58
2021/12/16 09:03:15;;;;;;;87.70;61.45;;;;;;;5.56;74.31;101908.81;5549166;32;33585;-58
2021/12/16 09:06:19;;;;;;;92.30;63.78;;;;;;;5.58;85.31;101907.56;5564151;32;34217;-58
2021/12/16 09:09:21;;;;;;;106.80;70.53;;;;;;;5.57;77.99;101903.28;5568482;32;33765;-58
2021/12/16 09:15:41;;;;;;;114.68;75.18;;;;;;;5.71;75.08;101895.25;5568592;32;33677;-58
2021/12/16 09:18:44;;;;;;;123.80;78.07;;;;;;;5.73;80.16;101893.19;5566899;32;33627;-58
2021/12/16 09:21:46;;;;;;;125.10;79.12;;;;;;;5.87;74.22;101898.25;5567424;32;33497;-58
2021/12/16 09:24:50;;;;;;;119.62;75.40;;;;;;;5.92;74.12;101897.63;5568462;32;33867;-58
2021/12/16 09:27:53;;;;;;;116.97;76.10;;;;;;;5.93;78.26;101901.97;5562670;32;33767;-58
2021/12/16 09:30:57;;;;;;;121.72;77.05;;;;;;;5.98;79.63;101896.81;5566385;32;33614;-58
2021/12/16 09:34:05;;;;;;;118.75;75.82;;;;;;;6.29;77.83;101895.19;5563706;32;32396;-58
2021/12/16 09:37:08;;;;;;;111.43;73.55;;;;;;;6.28;74.48;101893.56;5549176;32;34040;-58
2021/12/16 09:40:14;;;;;;;106.07;72.95;;;;;;;6.38;73.01;101890.44;5557441;32;34587;-58
2021/12/16 09:43:21;;;;;;;115.37;72.68;;;;;;;6.37;77.39;101894.16;5553834;32;33622;-58
2021/12/16 09:46:28;;;;;;;101.05;66.05;;;;;;;6.38;83.26;101890.44;5565924;32;34260;-58
2021/12/16 09:49:31;;;;;;;94.45;63.00;;;;;;;6.78;77.04;101888.31;5562456;32;33922;-58
2021/12/16 09:52:33;;;;;;;86.47;57.53;;;;;;;6.89;72.59;101874.28;5562970;32;33788;-58
2021/12/16 09:55:36;;;;;;;73.50;49.75;;;;;;;6.91;76.94;101880.19;5567496;32;33752;-58
2021/12/16 09:58:42;;;;;;;73.90;52.38;;;;;;;7.25;77.86;101876.19;5550964;32;33602;-58
2021/12/16 10:01:47;;;;;;;65.20;45.53;;;;;;;7.37;72.66;101878.91;5569055;32;34396;-58
2021/12/16 10:04:50;;;;;;;57.88;38.30;;;;;;;7.52;80.73;101876.72;5570772;32;33707;-58
2021/12/16 10:07:52;;;;;;;58.83;39.03;;;;;;;7.70;73.13;101877.72;5568546;32;33598;-58
2021/12/16 10:10:56;;;;;;;62.35;45.63;;;;;;;7.86;77.71;101870.97;5570576;32;34864;-58
2021/12/16 10:14:03;;;;;;;72.57;51.45;;;;;;;8.41;81.63;101871.66;5569597;32;34174;-58
2021/12/16 10:17:25;;;;;;;73.75;50.60;;;;;;;8.83;76.09;101865.44;5559569;32;33886;-56
2021/12/16 10:20:34;;;;;;;72.15;49.38;;;;;;;8.66;69.34;101860.75;5568212;32;33179;-56
2021/12/16 10:23:53;;;;;;;72.28;48.83;;;;;;;8.59;74.90;101849.38;5568679;32;34443;-58
2021/12/16 10:27:09;;;;;;;66.53;46.17;;;;;;;8.80;75.88;101849.84;5568873;32;33485;-58
2021/12/16 10:30:14;;;;;;;72.97;47.03;;;;;;;8.91;77.21;101841.84;5549601;32;33576;-58
2021/12/16 10:33:24;;;;;;;67.03;44.70;;;;;;;8.78;70.87;101836.72;5555964;32;33706;-58
2021/12/16 10:36:31;;;;;;;66.22;46.45;;;;;;;9.02;78.22;101831.34;5566117;32;33898;-58
2021/12/16 10:39:33;;;;;;;;;;;;;;;9.25;69.77;101831.31;5560778;32;34222;-58
2021/12/16 10:42:46;;;;;;;63.03;40.92;;;;;;;9.07;69.24;101829.63;5563024;32;34499;-59
2021/12/16 10:46:14;;;;;;;74.18;43.87;;;;;;;9.17;70.68;101823.66;5567603;32;36104;-58
2021/12/16 10:49:25;;;;;;;69.75;41.53;;;;;;;8.98;68.49;101827.53;5569733;32;33633;-59
2021/12/16 10:52:28;;;;;;;57.58;36.60;;;;;;;8.93;69.00;101817.50;5562103;32;34289;-59
2021/12/16 10:55:31;;;;;;;54.05;35.45;;;;;;;9.04;70.26;101824.72;5566302;32;33761;-59
2021/12/16 10:58:56;;;;;;;55.83;36.08;;;;;;;9.09;76.14;101824.03;5569061;32;33227;-59
2021/12/16 11:02:09;;;;;;;51.22;34.17;;;;;;;9.06;69.22;101814.59;5567531;32;33729;-59
2021/12/16 11:05:13;;;;;;;58.08;34.72;;;;;;;8.92;69.65;101829.28;5568197;32;35459;-59
2021/12/16 11:08:20;;;;;;;48.53;32.67;;;;;;;8.96;70.85;101821.59;5568931;32;33991;-59
2021/12/16 11:11:29;;;;;;;52.62;31.77;;;;;;;8.79;70.12;101827.63;5567371;32;33709;-58
2021/12/16 11:14:32;;;;;;;46.30;32.47;;;;;;;8.85;69.70;101823.22;5562765;32;34312;-58
2021/12/16 11:17:43;;;;;;;26.25;17.40;;;;;;;9.08;78.75;101827.75;5561586;32;33484;-59
2021/12/16 11:20:52;;;;;;;24.50;17.17;;;;;;;9.05;69.71;101818.31;5566957;32;33681;-58
2021/12/16 11:23:54;;;;;;;25.60;16.33;;;;;;;8.90;69.19;101815.31;5554653;32;34410;-59
2021/12/16 11:26:56;;;;;;;21.10;14.85;;;;;;;8.99;70.03;101818.44;5564872;32;34027;-58
2021/12/16 11:30:19;;;;;;;26.58;16.37;;;;;;;9.15;68.76;101823.09;5568478;32;33705;-59
2021/12/16 11:33:42;;;;;;;26.42;18.00;;;;;;;8.74;69.45;101814.16;5568376;32;33795;-58
2021/12/16 11:36:52;;;;;;;27.37;17.25;;;;;;;8.89;72.01;101809.16;5561026;32;34295;-58
2021/12/16 11:39:55;;;;;;;25.83;17.08;;;;;;;8.73;70.07;101811.72;5563646;32;33761;-59
2021/12/16 11:43:03;;;;;;;25.73;17.50;;;;;;;8.67;70.67;101814.25;5554147;32;33778;-58
2021/12/16 11:46:13;;;;;;;28.48;18.17;;;;;;;8.59;74.24;101811.12;5562541;32;33959;-58
2021/12/16 11:49:37;;;;;;;26.98;18.25;;;;;;;8.70;71.46;101804.97;5562342;32;33653;-58
2021/12/16 11:52:40;;;;;;;30.27;19.40;;;;;;;8.59;71.20;101805.78;5568696;32;33262;-59
2021/12/16 11:55:43;;;;;;;30.67;18.90;;;;;;;9.07;82.96;101802.87;5561699;32;34336;-58
2021/12/16 11:58:48;;;;;;;27.17;19.35;;;;;;;9.06;71.55;101795.87;5557995;32;33789;-58
2021/12/16 12:01:51;;;;;;;31.42;19.75;;;;;;;8.99;71.19;101792.50;5554663;32;33631;-58
2021/12/16 12:05:29;;;;;;;30.90;20.37;;;;;;;9.27;71.43;101796.28;5563312;32;33684;-59
2021/12/16 12:08:32;;;;;;;28.52;18.87;;;;;;;9.29;79.18;101796.88;5566040;32;33758;-58
2021/12/16 12:11:40;;;;;;;27.05;19.45;;;;;;;9.18;69.33;101796.66;5563973;32;33468;-58
2021/12/16 12:14:44;;;;;;;29.85;19.23;;;;;;;9.53;69.86;101801.09;5554428;32;33593;-58
2021/12/16 12:17:54;;;;;;;27.87;19.60;;;;;;;9.40;69.63;101804.88;5561103;31;32166;-58
2021/12/16 12:21:20;;;;;;;26.98;19.45;;;;;;;9.34;68.94;101799.66;5559675;32;33149;-58
2021/12/16 12:24:43;;;;;;;26.95;19.55;;;;;;;9.24;69.27;101796.75;5540772;32;32996;-58
2021/12/16 12:27:46;;;;;;;28.35;19.85;;;;;;;9.30;71.81;101795.81;5559906;32;32609;-58
2021/12/16 12:30:49;;;;;;;29.87;19.45;;;;;;;9.35;72.14;101790.59;5564619;32;33619;-59
2021/12/16 12:33:52;;;;;;;28.20;20.15;;;;;;;9.23;69.87;101795.16;5558706;32;32934;-58
2021/12/16 12:37:01;;;;;;;28.42;19.52;;;;;;;9.25;70.05;101798.41;5561949;32;34413;-59
2021/12/16 12:40:14;;;;;;;31.65;20.83;;;;;;;9.28;69.38;101796.06;5563459;32;33740;-58
2021/12/16 12:43:16;;;;;;;26.80;17.90;;;;;;;9.41;77.01;101793.13;5568497;32;34362;-58
2021/12/16 12:46:19;;;;;;;30.70;21.60;;;;;;;9.43;68.98;101784.84;5566173;32;33892;-59
2021/12/16 12:49:26;;;;;;;26.62;19.45;;;;;;;9.70;80.43;101800.34;5563195;32;33591;-58
2021/12/16 12:52:32;;;;;;;27.65;19.12;;;;;;;9.77;74.92;101796.50;5566731;32;33503;-59
2021/12/16 12:55:34;;;;;;;28.80;19.40;;;;;;;10.19;72.97;101796.13;5562471;32;34297;-59
2021/12/16 12:58:50;;;;;;;27.15;20.48;;;;;;;10.01;70.01;101789.13;5561127;32;33834;-59
2021/12/16 13:01:55;;;;;;;30.33;19.37;;;;;;;9.39;68.28;101791.72;5558925;32;33365;-58
2021/12/16 13:05:18;;;;;;;25.77;18.73;;;;;;;9.40;72.73;101785.31;5550318;32;34381;-59
2021/12/16 13:08:39;;;;;;;27.50;19.60;;;;;;;9.39;74.37;101789.84;5553168;32;34302;-59
2021/12/16 13:11:42;;;;;;;26.30;19.58;;;;;;;9.49;68.93;101799.97;5563298;32;33667;-58
2021/12/16 13:14:47;;;;;;;28.05;19.33;;;;;;;9.42;68.86;101799.28;5560451;32;33633;-58
2021/12/16 13:25:02;;;;;;;26.35;19.33;;;;;;;9.40;75.81;101799.53;5567342;32;32681;-59
2021/12/16 13:28:16;;;;;;;27.87;19.00;;;;;;;9.58;70.53;101792.38;5563270;32;33552;-58
2021/12/16 13:31:41;;;;;;;25.15;18.55;;;;;;;9.52;69.29;101804.03;5562666;32;34329;-59
2021/12/16 13:34:52;;;;;;;25.92;18.33;;;;;;;9.52;68.40;101804.84;5561732;32;34313;-58
2021/12/16 13:37:58;;;;;;;27.08;18.95;;;;;;;9.72;67.63;101798.25;5569569;32;34369;-59
2021/12/16 13:41:11;;;;;;;26.58;18.85;;;;;;;9.69;74.36;101804.09;5555144;32;34370;-58
2021/12/16 13:44:15;;;;;;;24.98;18.42;;;;;;;9.56;68.18;101808.66;5552954;32;34454;-58
2021/12/16 13:58:56;;;;;;;23.65;17.95;;;;;;;9.07;69.42;101808.22;5553879;32;33621;-59
2021/12/16 14:01:50;;;;;;;25.35;18.33;;;;;;;9.16;69.20;101811.31;5564365;32;34154;-59
2021/12/16 14:05:16;;;;;;;26.23;17.52;;;;;;;9.15;77.20;101815.06;5566499;32;33641;-58
2021/12/16 14:08:35;;;;;;;;;;;;;;;9.13;69.17;101812.59;5551130;32;33628;-58
2021/12/16 14:22:55;;;;;;;23.60;16.08;;;;;;;9.12;69.52;101818.19;5556403;32;33632;-58
2021/12/16 14:35:14;;;;;;;22.30;16.25;;;;;;;9.46;68.64;101813.00;5562709;32;34235;-59
2021/12/16 14:51:16;;;;;;;26.65;17.08;;;;;;;9.22;68.65;101821.09;5549608;32;33812;-58
2021/12/16 14:54:19;;;;;;;24.87;16.02;;;;;;;9.36;68.04;101825.12;5555370;32;33695;-58
2021/12/16 14:57:25;;;;;;;19.95;15.23;;;;;;;9.29;68.53;101816.41;5549418;32;33635;-59
2021/12/16 15:00:45;;;;;;;23.40;16.37;;;;;;;9.31;68.29;101821.56;5549435;32;33622;-59
2021/12/16 15:03:51;;;;;;;20.50;15.02;;;;;;;9.55;68.70;101831.13;5549630;32;34573;-58
2021/12/16 15:07:02;;;;;;;19.60;14.40;;;;;;;9.33;68.20;101817.56;5562211;32;33659;-59
2021/12/16 15:10:05;;;;;;;20.67;14.57;;;;;;;9.41;72.53;101816.41;5569361;32;34905;-59
2021/12/16 15:13:15;;;;;;;23.23;16.23;;;;;;;9.46;69.61;101811.12;5569453;32;34087;-58
2021/12/16 15:16:42;;;;;;;17.33;14.10;;;;;;;9.48;70.43;101813.59;5551246;32;34309;-59
2021/12/16 15:35:18;;;;;;;19.85;14.18;;;;;;;9.55;75.24;101806.22;5569327;32;34426;-59
2021/12/16 15:40:36;;;;;;;20.27;13.07;;;;;;;9.50;67.91;101801.56;5549764;32;33640;-58
2021/12/16 15:43:38;;;;;;;17.35;13.73;;;;;;;9.49;67.24;101809.84;5549762;32;33863;-59
2021/12/16 15:46:41;;;;;;;20.75;14.15;;;;;;;9.26;68.29;101816.87;5555800;32;33750;-58
2021/12/16 15:49:44;;;;;;;18.00;13.40;;;;;;;9.24;70.00;101813.66;5568905;32;34398;-59
2021/12/16 15:52:51;;;;;;;18.90;13.82;;;;;;;9.18;68.90;101811.91;5569539;32;33743;-58
2021/12/16 15:56:00;;;;;;;25.00;13.27;;;;;;;9.46;74.88;101813.00;5566723;32;34416;-58
2021/12/16 15:59:17;;;;;;;18.58;13.15;;;;;;;9.52;68.76;101817.41;5550593;32;33364;-58
2021/12/16 16:02:21;;;;;;;20.45;15.20;;;;;;;9.45;76.81;101825.59;5549996;32;33639;-59
2021/12/16 16:05:30;;;;;;;17.87;13.98;;;;;;;9.69;73.36;101817.47;5550329;32;34489;-59
2021/12/16 16:08:38;;;;;;;19.12;14.75;;;;;;;9.53;73.04;101821.72;5557068;32;34361;-58
2021/12/16 16:11:47;;;;;;;21.48;15.18;;;;;;;9.71;71.93;101823.41;5551163;32;32501;-59
2021/12/16 16:14:50;;;;;;;18.77;14.25;;;;;;;9.90;72.58;101830.22;5555932;32;32475;-58
2021/12/16 16:18:01;;;;;;;20.42;14.10;;;;;;;9.77;68.95;101841.22;5550516;32;33746;-58
2021/12/16 16:21:19;;;;;;;18.80;13.95;;;;;;;9.64;66.42;101823.56;5564750;32;33332;-59
2021/12/16 16:24:26;;;;;;;19.37;15.18;;;;;;;9.78;72.42;101830.25;5555605;32;34479;-59
2021/12/16 16:27:31;;;;;;;;;;;;;;;9.70;67.46;101816.41;5556344;32;34372;-59
2021/12/16 16:30:34;;;;;;;17.42;13.25;;;;;;;9.59;66.98;101812.72;5561262;32;34131;-58
2021/12/16 16:33:36;;;;;;;19.62;14.52;;;;;;;9.53;66.85;101819.03;5552325;32;34442;-58
2021/12/16 16:36:45;;;;;;;19.85;15.07;;;;;;;9.40;70.80;101820.13;5557487;32;33704;-58
2021/12/16 16:39:54;;;;;;;35.72;26.08;;;;;;;9.58;68.20;101816.47;5550852;32;33728;-58
2021/12/16 16:42:59;;;;;;;27.92;20.30;;;;;;;9.57;72.47;101830.88;5563426;32;33835;-58
2021/12/16 16:46:06;;;;;;;19.30;14.30;;;;;;;9.76;69.50;101826.16;5559884;32;34363;-58
2021/12/16 16:49:24;;;;;;;18.20;14.38;;;;;;;9.86;66.70;101819.13;5565423;32;33325;-58
2021/12/16 16:52:29;;;;;;;17.10;13.77;;;;;;;9.91;72.61;101826.47;5564703;32;33705;-58
2021/12/16 16:55:34;;;;;;;18.70;14.85;;;;;;;10.07;68.60;101831.03;5560071;32;33732;-58
